TNCMTLPC

Guest
Details From TNCM - St Maarten - Princess Juliana Intl
To TLPC - Castries/George F L Charles
Flight Number -
Tags decoded
Created
Modified
Stats Distance 286 nm / 530 km
Max Altitude 0 ft / 0 m
Waypoints 6
Social Downloads 2
Likes 0
Share VATSIM

Download

Looking for another format? Having issues loading an existing format? Contact us
Advertisement - Login to hide

Notes

Requested: TNCM ELOPO L451 ANU UA312 FOF TLPC Unmatched points: L451

Route

TNCM ELOPO ANU UA312 FOF TLPC

ID Type Via Altitude Latitude Longitude Leg Dist Tot Dist Heading (true) Name
O TNCM APT - 0 ft / 0 m 18.04089˚ -63.10897˚ - 0 nm - St Maarten - Princess Juliana Intl
ELOPO FIX - 0 ft / 0 m 17.65006˚ -62.55439˚ 39 nm 39 nm 126° / 127° -
ANU NDB - 0 ft / 0 m 17.12588˚ -61.80017˚ 53 nm 92 nm 126° / 126° V C BIRD NDB
PPR DME UA312 (AWY-HI) 0 ft / 0 m 16.26519˚ -61.54014˚ 53 nm 146 nm 164° / 164° POINTE A PITRE VOR-DME
FOF NDB UA312 (AWY-HI) 0 ft / 0 m 14.58908˚ -61.00131˚ 105 nm 252 nm 163° / 163° MARTINIQUE NDB
O TLPC APT - 0 ft / 0 m 14.01970˚ -60.99339˚ 34 nm 286 nm 179° / 179° Castries/George F L Charles

Altitude Profile

Advertisement - Login to hide

Weather


0- 5 10 15 20 25 30 35+ Temperature / ° C

Clouds and Precipitation
Forecast for 2017-12-13 18:00 UTC. Updated 2 hours ago

Ground ~20,000 ft ~40,000 ft Winds

TNCM

Details ICAO TNCM (SXM)
Name St Maarten - Princess Juliana Intl
Region Caribbean Netherlands, Aruba, Curaçao, Sint Maarten
Timezone Unknown (UTC+0.0)
Stats Elevation 12 ft / 4 m (AMSL)
Location 18.040889° -63.108974°
Runways 1
Magnetic Variation 14.325° W

METAR

TNCM 131800Z 13007KT 100V160 9999 FEW021 29/23 Q1015 A2999 NOSIG

Decode

TAF

TNCM 131739Z 1318/1418 14010KT P6SM VCSH FEW020 FM132300 09006KT P6SM SCT022 FM141200 13012KT P6SM FEW022

Decode

Departure Runways

ID Width Length Bearing (true) Bearing (mag) Surface Threshold Offset Overrun Length
10 148 ft / 45 m 7,464 ft / 2,275 m 81.43° 95.76° Asphalt 0 ft / 0 m 151 ft / 46 m
28 148 ft / 45 m 7,464 ft / 2,275 m 261.44° 275.77° Asphalt 397 ft / 121 m 0 ft / 0 m

TLPC

Details ICAO TLPC (SLU)
Name Castries/George F L Charles
Region Saint Lucia
Timezone America/St_Lucia (UTC-4.0)
Stats Elevation 22 ft / 7 m (AMSL)
Location 14.019704° -60.993394°
Runways 1
Magnetic Variation 15.072° W

METAR

TLPC 131800Z 12010KT 9999 BKN024 30/23 Q1014 NOSIG

Decode

TAF

Not found

Destination Runways

ID Width Length Bearing (true) Bearing (mag) Surface Threshold Offset Overrun Length
09 148 ft / 45 m 5,731 ft / 1,747 m 75.34° 90.41° Asphalt 400 ft / 122 m 0 ft / 0 m
27 148 ft / 45 m 5,731 ft / 1,747 m 255.34° 270.41° Asphalt 925 ft / 282 m 0 ft / 0 m

Popular Alternatives